createdAt,value
2022-11-27T00:00:17.693Z,10.94
2022-11-27T00:02:46.307Z,10.91
2022-11-27T00:05:14.904Z,10.83
2022-11-27T00:07:43.648Z,10.78
2022-11-27T00:10:14.192Z,10.76
2022-11-27T00:12:42.720Z,10.66
2022-11-27T00:15:16.942Z,10.63
2022-11-27T00:17:46.060Z,10.59
2022-11-27T00:20:15.349Z,10.65
2022-11-27T00:22:43.743Z,10.51
2022-11-27T00:25:13.705Z,10.45
2022-11-27T00:27:42.339Z,10.47
2022-11-27T00:30:11.769Z,10.40
2022-11-27T00:32:40.183Z,10.41
2022-11-27T00:35:09.514Z,10.39
2022-11-27T00:37:38.504Z,10.32
2022-11-27T00:40:08.691Z,10.33
2022-11-27T00:42:38.589Z,10.30
2022-11-27T00:45:07.814Z,10.26
2022-11-27T00:47:38.248Z,10.30
2022-11-27T00:50:07.905Z,10.23
2022-11-27T00:52:37.441Z,10.17
2022-11-27T00:55:06.641Z,10.17
2022-11-27T00:57:35.221Z,10.16
2022-11-27T01:00:06.067Z,10.10
2022-11-27T01:02:35.337Z,10.10
2022-11-27T01:05:03.860Z,10.06
2022-11-27T01:07:32.663Z,10.06
2022-11-27T01:10:01.132Z,10.07
2022-11-27T01:12:29.670Z,10.03
2022-11-27T01:14:58.319Z,9.96
2022-11-27T01:17:28.268Z,9.95
2022-11-27T01:19:56.810Z,9.93
2022-11-27T01:22:25.370Z,9.96
2022-11-27T01:24:53.878Z,10.09
2022-11-27T01:27:23.509Z,10.09
2022-11-27T01:29:52.137Z,9.92
2022-11-27T01:32:20.646Z,9.95
2022-11-27T01:34:50.888Z,9.90
2022-11-27T01:37:19.595Z,9.83
2022-11-27T01:39:48.130Z,9.78
2022-11-27T01:42:16.637Z,9.79
2022-11-27T01:44:53.680Z,9.78
2022-11-27T01:47:39.592Z,9.77
2022-11-27T01:50:15.327Z,9.74
2022-11-27T01:52:49.815Z,9.75
2022-11-27T01:55:25.000Z,9.73
2022-11-27T01:57:56.760Z,9.74
2022-11-27T02:00:26.451Z,9.69
2022-11-27T02:02:55.253Z,9.77
2022-11-27T02:05:28.951Z,9.72
2022-11-27T02:07:59.417Z,9.67
2022-11-27T02:10:37.651Z,9.61
2022-11-27T02:13:11.643Z,9.67
2022-11-27T02:15:48.662Z,9.63
2022-11-27T02:18:25.929Z,9.60
2022-11-27T02:21:05.910Z,9.65
2022-11-27T02:24:07.319Z,9.60
2022-11-27T02:27:12.201Z,9.52
2022-11-27T02:29:44.431Z,9.54
2022-11-27T02:32:21.539Z,9.46
2022-11-27T02:34:56.743Z,9.47
2022-11-27T02:37:34.212Z,9.48
2022-11-27T02:40:06.995Z,9.45
2022-11-27T02:42:40.855Z,9.46
2022-11-27T02:45:14.530Z,9.36
2022-11-27T02:47:46.446Z,9.38
2022-11-27T02:50:19.700Z,9.48
2022-11-27T02:52:51.701Z,9.39
2022-11-27T02:55:24.590Z,9.41
2022-11-27T02:57:57.452Z,9.41
2022-11-27T03:00:27.624Z,9.40
2022-11-27T03:03:00.858Z,9.34
2022-11-27T03:05:34.166Z,9.32
2022-11-27T03:08:08.763Z,9.33
2022-11-27T03:10:41.840Z,9.35
2022-11-27T03:13:10.518Z,9.33
2022-11-27T03:15:46.927Z,9.29
2022-11-27T03:18:24.152Z,9.25
2022-11-27T03:21:00.190Z,9.20
2022-11-27T03:23:29.941Z,9.18
2022-11-27T03:25:58.699Z,9.23
2022-11-27T03:28:30.239Z,9.17
2022-11-27T03:31:00.414Z,9.25
2022-11-27T03:33:29.225Z,9.15
2022-11-27T03:35:57.810Z,9.17
2022-11-27T03:38:27.493Z,9.15
2022-11-27T03:41:07.091Z,9.16
2022-11-27T03:43:43.632Z,9.17
2022-11-27T03:46:25.687Z,9.09
2022-11-27T03:49:04.411Z,9.08
2022-11-27T03:51:41.102Z,9.09
2022-11-27T03:54:18.069Z,9.07
2022-11-27T03:56:54.811Z,9.05
2022-11-27T03:59:27.459Z,9.04
2022-11-27T04:01:57.933Z,9.10
2022-11-27T04:04:27.183Z,9.13
2022-11-27T04:06:55.852Z,9.16
2022-11-27T04:09:25.608Z,9.13
2022-11-27T04:11:54.072Z,9.19
2022-11-27T04:14:22.627Z,9.12
2022-11-27T04:16:51.151Z,9.11
2022-11-27T04:19:21.135Z,9.08
2022-11-27T04:21:49.671Z,9.00
2022-11-27T04:24:18.510Z,8.99
2022-11-27T04:26:46.961Z,9.03
2022-11-27T04:29:15.629Z,8.96
2022-11-27T04:31:44.191Z,8.91
2022-11-27T04:34:12.755Z,8.94
2022-11-27T04:36:42.950Z,8.93
2022-11-27T04:39:13.556Z,9.06
2022-11-27T04:41:42.170Z,9.09
2022-11-27T04:44:10.792Z,9.10
2022-11-27T04:46:39.432Z,9.06
2022-11-27T04:49:08.000Z,9.00
2022-11-27T04:51:36.611Z,9.02
2022-11-27T04:54:06.726Z,8.99
2022-11-27T04:56:35.291Z,8.99
2022-11-27T04:59:03.769Z,8.97
2022-11-27T05:01:32.621Z,8.93
2022-11-27T05:04:01.184Z,8.86
2022-11-27T05:06:29.619Z,8.87
2022-11-27T05:09:02.179Z,8.83
2022-11-27T05:11:33.467Z,8.81
2022-11-27T05:14:18.640Z,8.83
2022-11-27T05:16:49.440Z,8.86
2022-11-27T05:19:19.771Z,8.85
2022-11-27T05:21:49.309Z,8.81
2022-11-27T05:24:19.879Z,8.89
2022-11-27T05:26:50.210Z,8.83
2022-11-27T05:29:18.910Z,8.79
2022-11-27T05:31:47.601Z,8.83
2022-11-27T05:34:16.361Z,8.81
2022-11-27T05:36:46.081Z,8.78
2022-11-27T05:39:14.310Z,8.72
2022-11-27T05:41:44.537Z,8.72
2022-11-27T05:44:16.680Z,8.72
2022-11-27T05:46:45.438Z,8.76
2022-11-27T05:49:16.201Z,8.75
2022-11-27T05:51:50.975Z,8.74
2022-11-27T05:54:22.797Z,8.76
2022-11-27T05:56:51.199Z,8.74
2022-11-27T05:59:21.590Z,8.72
2022-11-27T06:01:50.634Z,8.71
2022-11-27T06:04:19.860Z,8.75
2022-11-27T06:06:48.419Z,8.79
2022-11-27T06:09:16.906Z,8.81
2022-11-27T06:11:45.522Z,8.84
2022-11-27T06:14:13.979Z,8.73
2022-11-27T06:16:44.303Z,8.76
2022-11-27T06:19:12.864Z,8.65
2022-11-27T06:21:41.401Z,8.59
2022-11-27T06:24:09.892Z,8.60
2022-11-27T06:26:38.421Z,8.57
2022-11-27T06:29:07.049Z,8.65
2022-11-27T06:31:38.931Z,8.64
2022-11-27T06:34:09.493Z,8.57
2022-11-27T06:36:41.475Z,8.70
2022-11-27T06:39:12.348Z,8.66
2022-11-27T06:41:41.012Z,8.64
2022-11-27T06:44:11.381Z,8.58
2022-11-27T06:46:39.928Z,8.50
2022-11-27T06:49:11.605Z,8.57
2022-11-27T06:51:40.262Z,8.55
2022-11-27T06:54:08.914Z,8.61
2022-11-27T06:56:37.480Z,8.56
2022-11-27T06:59:06.439Z,8.54
2022-11-27T07:01:35.179Z,8.46
2022-11-27T07:04:03.778Z,8.38
2022-11-27T07:06:37.041Z,8.35
2022-11-27T07:09:06.458Z,8.33
2022-11-27T07:11:35.799Z,8.42
2022-11-27T07:14:06.485Z,8.31
2022-11-27T07:16:37.530Z,8.31
2022-11-27T07:19:08.227Z,8.22
2022-11-27T07:21:40.283Z,8.25
2022-11-27T07:24:09.510Z,8.22
2022-11-27T07:26:40.023Z,8.19
2022-11-27T07:29:08.777Z,8.20
2022-11-27T07:31:37.607Z,8.19
2022-11-27T07:34:11.706Z,8.15
2022-11-27T07:36:47.698Z,8.18
2022-11-27T07:39:25.267Z,8.10
2022-11-27T07:42:16.737Z,8.20
2022-11-27T07:44:51.764Z,8.24
2022-11-27T07:47:20.372Z,8.17
2022-11-27T07:49:48.940Z,8.13
2022-11-27T07:52:18.809Z,8.15
2022-11-27T07:54:47.345Z,8.24
2022-11-27T07:57:15.869Z,8.14
2022-11-27T07:59:47.323Z,8.12
2022-11-27T08:02:16.794Z,8.20
2022-11-27T08:04:45.578Z,8.16
2022-11-27T08:07:14.584Z,8.09
2022-11-27T08:09:44.788Z,7.99
2022-11-27T08:12:13.339Z,8.01
2022-11-27T08:14:42.099Z,8.10
2022-11-27T08:17:14.640Z,8.12
2022-11-27T08:19:43.322Z,8.19
2022-11-27T08:22:14.101Z,8.17
2022-11-27T08:24:44.177Z,8.23
2022-11-27T08:27:13.456Z,8.33
2022-11-27T08:29:43.251Z,8.35
2022-11-27T08:32:12.433Z,8.37
2022-11-27T08:34:43.908Z,8.35
2022-11-27T08:37:12.619Z,8.42
2022-11-27T08:39:43.667Z,8.39
2022-11-27T08:42:12.438Z,8.42
2022-11-27T08:44:41.255Z,8.36
2022-11-27T08:47:10.095Z,8.49
2022-11-27T08:49:45.930Z,8.57
2022-11-27T08:52:15.425Z,8.55
2022-11-27T08:54:45.432Z,8.48
2022-11-27T08:57:13.920Z,8.57
2022-11-27T08:59:45.324Z,8.63
2022-11-27T09:02:14.145Z,8.57
2022-11-27T09:04:42.826Z,8.54
2022-11-27T09:07:14.573Z,8.63
2022-11-27T09:09:44.835Z,8.62
2022-11-27T09:12:13.971Z,8.65
2022-11-27T09:14:44.848Z,8.72
2022-11-27T09:17:13.498Z,8.67
2022-11-27T09:19:44.595Z,8.63
2022-11-27T09:22:13.161Z,8.58
2022-11-27T09:24:42.193Z,8.57
2022-11-27T09:27:15.251Z,8.58
2022-11-27T09:29:43.794Z,8.57
2022-11-27T09:32:12.600Z,8.58
2022-11-27T09:34:41.435Z,8.65
2022-11-27T09:37:10.431Z,8.73
2022-11-27T09:39:39.220Z,8.84
2022-11-27T09:42:16.678Z,8.95
2022-11-27T09:44:52.309Z,9.10
2022-11-27T09:47:38.394Z,9.23
2022-11-27T09:50:15.820Z,9.33
2022-11-27T09:52:49.871Z,9.50
2022-11-27T09:55:25.484Z,9.74
2022-11-27T09:58:00.747Z,10.03
2022-11-27T10:00:31.096Z,10.29
2022-11-27T10:02:59.877Z,10.52
2022-11-27T10:05:34.803Z,10.64
2022-11-27T10:08:19.525Z,10.73
2022-11-27T10:11:02.051Z,10.89
2022-11-27T10:13:44.586Z,11.08
2022-11-27T10:16:27.722Z,11.15
2022-11-27T10:18:59.910Z,11.14
2022-11-27T10:21:37.696Z,11.24
2022-11-27T10:24:17.609Z,11.48
2022-11-27T10:26:48.449Z,11.89
2022-11-27T10:29:30.799Z,11.89
2022-11-27T10:32:05.443Z,11.76
2022-11-27T10:34:43.648Z,11.58
2022-11-27T10:37:19.199Z,11.53
2022-11-27T10:39:53.022Z,11.54
2022-11-27T10:42:26.216Z,11.37
2022-11-27T10:45:00.990Z,11.14
2022-11-27T10:47:33.846Z,10.95
2022-11-27T10:50:02.968Z,10.90
2022-11-27T10:52:31.401Z,10.98
2022-11-27T10:55:03.990Z,11.30
2022-11-27T10:57:59.355Z,11.62
2022-11-27T11:00:29.645Z,11.76
2022-11-27T11:03:03.777Z,11.67
2022-11-27T11:05:57.475Z,12.20
2022-11-27T11:08:26.653Z,12.09
2022-11-27T11:10:59.638Z,11.85
2022-11-27T11:13:28.701Z,11.99
2022-11-27T11:16:02.013Z,11.92
2022-11-27T11:18:34.730Z,11.80
2022-11-27T11:21:07.527Z,11.70
2022-11-27T11:23:40.248Z,11.62
2022-11-27T11:26:16.846Z,11.44
2022-11-27T11:28:52.286Z,11.31
2022-11-27T11:31:24.690Z,11.28
2022-11-27T11:33:59.951Z,11.20
2022-11-27T11:36:30.132Z,11.11
2022-11-27T11:38:59.812Z,11.10
2022-11-27T11:41:40.592Z,11.19
2022-11-27T11:44:26.508Z,11.23
2022-11-27T11:46:57.702Z,11.16
2022-11-27T11:49:29.244Z,11.15
2022-11-27T11:52:22.834Z,11.05
2022-11-27T11:55:01.503Z,10.96
2022-11-27T11:58:10.485Z,10.87
2022-11-27T12:01:19.465Z,10.82
2022-11-27T12:03:43.110Z,10.73
2022-11-27T12:06:32.818Z,10.67
2022-11-27T12:09:13.642Z,10.66
2022-11-27T12:11:50.747Z,10.61
2022-11-27T12:14:36.113Z,10.53
2022-11-27T12:17:19.033Z,10.41
2022-11-27T12:20:00.009Z,10.38
2022-11-27T12:22:50.394Z,10.16
2022-11-27T12:25:30.294Z,9.94
2022-11-27T12:28:13.254Z,9.78
2022-11-27T12:30:52.267Z,9.85
2022-11-27T12:33:42.808Z,10.01
2022-11-27T12:36:23.882Z,10.28
2022-11-27T12:39:11.029Z,10.64
2022-11-27T12:42:04.119Z,11.03
2022-11-27T12:44:47.884Z,10.84
2022-11-27T12:47:24.744Z,10.69
2022-11-27T12:50:00.862Z,10.97
2022-11-27T12:52:35.712Z,11.02
2022-11-27T12:55:15.075Z,11.29
2022-11-27T12:57:50.456Z,11.31
2022-11-27T13:00:24.323Z,11.24
2022-11-27T13:03:04.248Z,11.33
2022-11-27T13:05:39.787Z,11.42
2022-11-27T13:08:15.494Z,11.55
2022-11-27T13:10:53.664Z,11.54
2022-11-27T13:13:29.621Z,11.72
2022-11-27T13:16:04.203Z,11.73
2022-11-27T13:18:38.220Z,11.70
2022-11-27T13:21:11.302Z,11.52
2022-11-27T13:23:40.029Z,11.59
2022-11-27T13:26:20.708Z,11.60
2022-11-27T13:28:55.786Z,11.35
2022-11-27T13:31:27.143Z,11.36
2022-11-27T13:34:02.513Z,11.44
2022-11-27T13:36:38.784Z,11.58
2022-11-27T13:39:08.747Z,11.70
2022-11-27T13:41:41.437Z,11.74
2022-11-27T13:44:25.740Z,11.36
2022-11-27T13:46:59.594Z,11.24
2022-11-27T13:49:32.381Z,11.11
2022-11-27T13:52:12.462Z,11.31
2022-11-27T13:54:53.367Z,11.39
2022-11-27T13:57:24.572Z,11.58
2022-11-27T14:00:04.657Z,11.37
2022-11-27T14:02:44.752Z,11.42
2022-11-27T14:05:15.102Z,11.44
2022-11-27T14:07:46.911Z,11.51
2022-11-27T14:10:19.101Z,11.56
2022-11-27T14:12:57.427Z,11.70
2022-11-27T14:15:27.742Z,11.75
2022-11-27T14:18:06.981Z,11.95
2022-11-27T14:20:39.537Z,12.32
2022-11-27T14:23:13.138Z,12.73
2022-11-27T14:25:42.914Z,12.92
2022-11-27T14:28:18.260Z,13.15
2022-11-27T14:30:49.926Z,13.39
2022-11-27T14:33:21.037Z,13.67
2022-11-27T14:35:54.177Z,13.63
2022-11-27T14:38:24.649Z,13.81
2022-11-27T14:40:55.196Z,13.91
2022-11-27T14:43:27.488Z,13.50
2022-11-27T14:46:00.638Z,12.42
2022-11-27T14:48:33.579Z,11.86
2022-11-27T14:51:03.397Z,11.48
2022-11-27T14:53:32.928Z,11.38
2022-11-27T14:56:01.567Z,11.14
2022-11-27T14:58:31.800Z,10.98
2022-11-27T15:01:02.804Z,10.96
2022-11-27T15:03:32.473Z,10.79
2022-11-27T15:06:03.197Z,10.73
2022-11-27T15:08:35.651Z,10.66
2022-11-27T15:11:06.477Z,10.68
2022-11-27T15:13:38.871Z,10.72
2022-11-27T15:16:16.167Z,10.66
2022-11-27T15:18:49.853Z,10.63
2022-11-27T15:21:26.738Z,10.61
2022-11-27T15:23:57.546Z,10.44
2022-11-27T15:26:35.962Z,10.45
2022-11-27T15:29:06.104Z,10.36
2022-11-27T15:31:37.782Z,10.36
2022-11-27T15:34:22.131Z,10.25
2022-11-27T15:36:55.845Z,10.16
2022-11-27T15:39:26.716Z,10.15
2022-11-27T15:41:58.225Z,10.09
2022-11-27T15:44:29.707Z,10.07
2022-11-27T15:47:00.296Z,10.02
2022-11-27T15:49:29.469Z,9.97
2022-11-27T15:51:59.550Z,9.92
2022-11-27T15:54:28.169Z,9.85
2022-11-27T15:56:56.791Z,9.85
2022-11-27T15:59:29.554Z,9.77
2022-11-27T16:01:58.277Z,9.71
2022-11-27T16:04:27.298Z,9.67
2022-11-27T16:06:55.635Z,9.63
2022-11-27T16:09:24.313Z,9.62
2022-11-27T16:11:52.858Z,9.53
2022-11-27T16:14:21.603Z,9.49
2022-11-27T16:16:52.461Z,9.56
2022-11-27T16:19:21.808Z,9.49
2022-11-27T16:21:50.331Z,9.47
2022-11-27T16:24:18.868Z,9.45
2022-11-27T16:26:47.217Z,9.39
2022-11-27T16:29:15.649Z,9.39
2022-11-27T16:31:44.457Z,9.40
2022-11-27T16:34:18.138Z,9.39
2022-11-27T16:36:46.823Z,9.45
2022-11-27T16:39:15.668Z,9.38
2022-11-27T16:41:44.023Z,9.33
2022-11-27T16:44:15.222Z,9.26
2022-11-27T16:46:45.021Z,9.30
2022-11-27T16:49:13.551Z,9.29
2022-11-27T16:51:44.040Z,9.26
2022-11-27T16:54:15.067Z,9.20
2022-11-27T16:56:44.352Z,9.18
2022-11-27T16:59:15.346Z,9.18
2022-11-27T17:01:44.495Z,9.26
2022-11-27T17:04:18.753Z,9.22
2022-11-27T17:06:53.053Z,9.28
2022-11-27T17:09:23.111Z,9.30
2022-11-27T17:11:51.682Z,9.28
2022-11-27T17:14:21.221Z,9.27
2022-11-27T17:16:51.364Z,9.20
2022-11-27T17:19:34.498Z,9.14
2022-11-27T17:22:04.616Z,9.17
2022-11-27T17:24:35.898Z,9.14
2022-11-27T17:27:04.709Z,9.15
2022-11-27T17:29:34.066Z,9.09
2022-11-27T17:32:02.768Z,9.10
2022-11-27T17:34:31.444Z,9.18
2022-11-27T17:37:00.324Z,9.11
2022-11-27T17:39:30.360Z,9.12
2022-11-27T17:41:59.221Z,9.10
2022-11-27T17:44:27.984Z,9.06
2022-11-27T17:46:56.553Z,9.13
2022-11-27T17:49:24.843Z,9.18
2022-11-27T17:51:53.204Z,9.11
2022-11-27T17:54:21.719Z,9.06
2022-11-27T17:56:54.582Z,9.07
2022-11-27T17:59:23.413Z,9.10
2022-11-27T18:01:53.749Z,9.07
2022-11-27T18:04:23.405Z,9.07
2022-11-27T18:06:52.702Z,9.07
2022-11-27T18:09:21.153Z,9.08
2022-11-27T18:11:49.720Z,9.06
2022-11-27T18:14:19.658Z,9.02
2022-11-27T18:16:48.267Z,8.99
2022-11-27T18:19:17.213Z,8.97
2022-11-27T18:21:45.758Z,8.90
2022-11-27T18:24:22.951Z,8.93
2022-11-27T18:27:08.036Z,8.94
2022-11-27T18:29:40.336Z,8.97
2022-11-27T18:32:10.649Z,9.05
2022-11-27T18:34:40.430Z,9.03
2022-11-27T18:37:09.822Z,8.99
2022-11-27T18:39:39.964Z,8.95
2022-11-27T18:42:09.771Z,8.97
2022-11-27T18:44:45.187Z,9.00
2022-11-27T18:47:14.614Z,9.22
2022-11-27T18:49:44.587Z,9.27
2022-11-27T18:52:13.622Z,9.30
2022-11-27T18:54:42.113Z,9.35
2022-11-27T18:57:12.382Z,9.34
2022-11-27T18:59:45.054Z,9.05
2022-11-27T19:02:14.773Z,8.60
2022-11-27T19:04:45.047Z,8.18
2022-11-27T19:07:15.449Z,7.94
2022-11-27T19:09:44.163Z,7.78
2022-11-27T19:12:14.212Z,7.65
2022-11-27T19:14:46.505Z,7.45
2022-11-27T19:17:15.127Z,7.39
2022-11-27T19:19:54.168Z,7.32
2022-11-27T19:22:23.724Z,7.27
2022-11-27T19:24:52.314Z,7.25
2022-11-27T19:27:23.275Z,7.19
2022-11-27T19:29:54.495Z,7.19
2022-11-27T19:32:22.976Z,7.09
2022-11-27T19:34:54.529Z,7.03
2022-11-27T19:37:33.987Z,6.97
2022-11-27T19:40:06.893Z,6.96
2022-11-27T19:42:35.750Z,6.92
2022-11-27T19:45:06.618Z,6.96
2022-11-27T19:47:35.279Z,6.88
2022-11-27T19:50:04.226Z,6.86
2022-11-27T19:52:34.753Z,6.85
2022-11-27T19:55:03.236Z,6.85
2022-11-27T19:57:31.896Z,6.83
2022-11-27T20:00:00.489Z,6.85
2022-11-27T20:02:31.911Z,6.90
2022-11-27T20:05:00.312Z,6.92
2022-11-27T20:07:29.048Z,6.93
2022-11-27T20:09:57.739Z,6.97
2022-11-27T20:12:26.177Z,6.95
2022-11-27T20:14:54.700Z,7.01
2022-11-27T20:17:23.476Z,7.05
2022-11-27T20:19:53.385Z,7.03
2022-11-27T20:22:21.926Z,7.04
2022-11-27T20:25:17.326Z,7.13
2022-11-27T20:27:39.896Z,7.10
2022-11-27T20:30:10.404Z,7.14
2022-11-27T20:32:38.999Z,7.27
2022-11-27T20:35:10.117Z,7.39
2022-11-27T20:37:39.091Z,7.37
2022-11-27T20:40:09.527Z,7.43
2022-11-27T20:42:38.515Z,7.34
2022-11-27T20:45:08.239Z,7.36
2022-11-27T20:47:36.873Z,7.36
2022-11-27T20:50:09.403Z,7.36
2022-11-27T20:52:38.068Z,7.38
2022-11-27T20:55:08.022Z,7.36
2022-11-27T20:57:36.679Z,7.44
2022-11-27T21:00:07.844Z,7.51
2022-11-27T21:02:36.892Z,7.46
2022-11-27T21:05:05.907Z,7.45
2022-11-27T21:07:38.966Z,7.36
2022-11-27T21:10:09.273Z,7.35
2022-11-27T21:12:39.218Z,7.28
2022-11-27T21:15:09.739Z,7.24
2022-11-27T21:17:39.254Z,7.20
2022-11-27T21:20:09.399Z,7.14
2022-11-27T21:22:42.900Z,7.17
2022-11-27T21:25:11.925Z,7.17
2022-11-27T21:27:41.264Z,7.13
2022-11-27T21:30:10.855Z,7.19
2022-11-27T21:32:39.329Z,7.37
2022-11-27T21:35:08.727Z,7.39
2022-11-27T21:37:38.893Z,7.43
2022-11-27T21:40:09.795Z,7.48
2022-11-27T21:42:43.100Z,7.43
2022-11-27T21:45:13.312Z,7.40
2022-11-27T21:47:41.709Z,7.37
2022-11-27T21:50:14.180Z,7.46
2022-11-27T21:52:44.124Z,7.49
2022-11-27T21:55:12.631Z,7.50
2022-11-27T21:57:41.712Z,7.55
2022-11-27T22:00:11.168Z,7.59
2022-11-27T22:02:39.978Z,7.62
2022-11-27T22:05:09.978Z,7.64
2022-11-27T22:07:38.626Z,7.71
2022-11-27T22:10:11.454Z,7.63
2022-11-27T22:12:39.845Z,7.60
2022-11-27T22:15:09.315Z,7.63
2022-11-27T22:17:40.158Z,7.66
2022-11-27T22:20:10.670Z,7.74
2022-11-27T22:22:39.221Z,7.80
2022-11-27T22:25:10.169Z,7.79
2022-11-27T22:27:38.830Z,7.81
2022-11-27T22:30:08.872Z,7.81
2022-11-27T22:32:40.069Z,7.73
2022-11-27T22:35:09.266Z,7.71
2022-11-27T22:37:37.798Z,7.75
2022-11-27T22:40:08.426Z,7.77
2022-11-27T22:42:38.527Z,7.71
2022-11-27T22:45:08.887Z,7.69
2022-11-27T22:47:37.433Z,7.72
2022-11-27T22:50:07.594Z,7.61
2022-11-27T22:52:37.448Z,7.60
2022-11-27T22:55:06.633Z,7.55
2022-11-27T22:57:35.488Z,7.68
2022-11-27T23:00:10.107Z,7.72
2022-11-27T23:02:39.760Z,7.62
2022-11-27T23:05:08.691Z,7.64
2022-11-27T23:07:37.473Z,7.66
2022-11-27T23:10:06.759Z,7.80
2022-11-27T23:12:35.293Z,7.75
2022-11-27T23:15:05.892Z,7.68
2022-11-27T23:17:34.439Z,7.73
2022-11-27T23:20:02.905Z,7.78
2022-11-27T23:22:32.670Z,7.84
2022-11-27T23:25:01.207Z,7.86
2022-11-27T23:27:29.928Z,7.93
2022-11-27T23:29:58.458Z,7.93
2022-11-27T23:32:29.534Z,7.97
2022-11-27T23:34:58.153Z,7.98
2022-11-27T23:37:26.867Z,8.01
2022-11-27T23:39:55.181Z,7.98
2022-11-27T23:42:23.545Z,7.93
2022-11-27T23:44:51.913Z,7.94
2022-11-27T23:47:21.410Z,7.83
2022-11-27T23:49:51.759Z,7.86
2022-11-27T23:52:20.243Z,7.90
2022-11-27T23:54:48.949Z,7.84
2022-11-27T23:57:17.524Z,7.82
2022-11-27T23:59:46.327Z,7.80
